sensor_id;sensor_type;location;lat;lon;timestamp;P1;durP1;ratioP1;P2;durP2;ratioP2
6203;SDS011;3135;42.602;23.468;2023-06-24T00:01:24;8.93;;;6.70;;
6203;SDS011;3135;42.602;23.468;2023-06-24T00:03:50;11.10;;;6.68;;
6203;SDS011;3135;42.602;23.468;2023-06-24T00:06:18;8.13;;;6.57;;
6203;SDS011;3135;42.602;23.468;2023-06-24T00:08:47;7.85;;;6.35;;
6203;SDS011;3135;42.602;23.468;2023-06-24T00:11:14;9.95;;;7.18;;
6203;SDS011;3135;42.602;23.468;2023-06-24T00:13:40;9.68;;;7.05;;
6203;SDS011;3135;42.602;23.468;2023-06-24T00:16:06;8.45;;;6.53;;
6203;SDS011;3135;42.602;23.468;2023-06-24T00:18:36;11.10;;;6.90;;
6203;SDS011;3135;42.602;23.468;2023-06-24T00:21:02;8.77;;;7.03;;
6203;SDS011;3135;42.602;23.468;2023-06-24T00:23:29;11.82;;;6.85;;
6203;SDS011;3135;42.602;23.468;2023-06-24T00:25:59;9.23;;;6.70;;
6203;SDS011;3135;42.602;23.468;2023-06-24T00:28:25;9.57;;;6.80;;
6203;SDS011;3135;42.602;23.468;2023-06-24T00:30:50;8.55;;;6.97;;
6203;SDS011;3135;42.602;23.468;2023-06-24T00:33:16;8.20;;;6.40;;
6203;SDS011;3135;42.602;23.468;2023-06-24T00:35:44;8.65;;;6.15;;
6203;SDS011;3135;42.602;23.468;2023-06-24T00:38:10;7.43;;;5.80;;
6203;SDS011;3135;42.602;23.468;2023-06-24T00:40:35;7.63;;;5.97;;
6203;SDS011;3135;42.602;23.468;2023-06-24T00:43:01;10.30;;;6.50;;
6203;SDS011;3135;42.602;23.468;2023-06-24T00:45:28;9.98;;;6.70;;
6203;SDS011;3135;42.602;23.468;2023-06-24T00:47:57;9.67;;;6.70;;
6203;SDS011;3135;42.602;23.468;2023-06-24T00:50:23;9.05;;;6.10;;
6203;SDS011;3135;42.602;23.468;2023-06-24T00:52:49;9.45;;;6.70;;
6203;SDS011;3135;42.602;23.468;2023-06-24T00:55:14;8.82;;;6.80;;
6203;SDS011;3135;42.602;23.468;2023-06-24T00:57:41;10.07;;;6.75;;
6203;SDS011;3135;42.602;23.468;2023-06-24T01:00:09;8.82;;;6.70;;
6203;SDS011;3135;42.602;23.468;2023-06-24T01:02:39;8.23;;;6.82;;
6203;SDS011;3135;42.602;23.468;2023-06-24T01:05:07;7.82;;;6.25;;
6203;SDS011;3135;42.602;23.468;2023-06-24T01:07:37;9.30;;;6.65;;
6203;SDS011;3135;42.602;23.468;2023-06-24T01:10:03;9.85;;;6.85;;
6203;SDS011;3135;42.602;23.468;2023-06-24T01:12:36;10.13;;;6.70;;
6203;SDS011;3135;42.602;23.468;2023-06-24T01:15:09;9.45;;;6.50;;
6203;SDS011;3135;42.602;23.468;2023-06-24T01:17:36;8.25;;;6.60;;
6203;SDS011;3135;42.602;23.468;2023-06-24T01:20:27;9.20;;;6.30;;
6203;SDS011;3135;42.602;23.468;2023-06-24T01:26:00;8.77;;;6.30;;
6203;SDS011;3135;42.602;23.468;2023-06-24T01:34:01;11.13;;;6.97;;
6203;SDS011;3135;42.602;23.468;2023-06-24T01:36:37;9.85;;;7.10;;
6203;SDS011;3135;42.602;23.468;2023-06-24T01:39:07;9.20;;;6.50;;
6203;SDS011;3135;42.602;23.468;2023-06-24T01:41:36;12.43;;;7.28;;
6203;SDS011;3135;42.602;23.468;2023-06-24T01:44:15;8.98;;;6.45;;
6203;SDS011;3135;42.602;23.468;2023-06-24T01:46:43;9.88;;;6.80;;
6203;SDS011;3135;42.602;23.468;2023-06-24T01:49:11;11.13;;;7.35;;
6203;SDS011;3135;42.602;23.468;2023-06-24T01:51:39;10.27;;;6.93;;
6203;SDS011;3135;42.602;23.468;2023-06-24T01:54:10;11.50;;;6.70;;
6203;SDS011;3135;42.602;23.468;2023-06-24T01:56:38;9.13;;;6.63;;
6203;SDS011;3135;42.602;23.468;2023-06-24T01:59:06;9.02;;;6.82;;
6203;SDS011;3135;42.602;23.468;2023-06-24T02:01:33;10.10;;;6.75;;
6203;SDS011;3135;42.602;23.468;2023-06-24T02:04:03;9.35;;;6.72;;
6203;SDS011;3135;42.602;23.468;2023-06-24T02:06:32;9.98;;;6.65;;
6203;SDS011;3135;42.602;23.468;2023-06-24T02:09:00;9.70;;;6.60;;
6203;SDS011;3135;42.602;23.468;2023-06-24T02:11:28;11.73;;;6.90;;
6203;SDS011;3135;42.602;23.468;2023-06-24T02:13:56;8.80;;;6.60;;
6203;SDS011;3135;42.602;23.468;2023-06-24T02:16:26;11.43;;;6.90;;
6203;SDS011;3135;42.602;23.468;2023-06-24T02:18:54;9.60;;;6.57;;
6203;SDS011;3135;42.602;23.468;2023-06-24T02:21:21;9.07;;;7.03;;
6203;SDS011;3135;42.602;23.468;2023-06-24T02:23:49;10.10;;;6.50;;
6203;SDS011;3135;42.602;23.468;2023-06-24T02:26:16;9.50;;;6.75;;
6203;SDS011;3135;42.602;23.468;2023-06-24T02:28:43;8.13;;;6.65;;
6203;SDS011;3135;42.602;23.468;2023-06-24T02:31:12;9.00;;;7.00;;
6203;SDS011;3135;42.602;23.468;2023-06-24T02:33:39;9.15;;;6.90;;
6203;SDS011;3135;42.602;23.468;2023-06-24T02:36:05;8.88;;;6.50;;
6203;SDS011;3135;42.602;23.468;2023-06-24T02:38:31;11.52;;;7.22;;
6203;SDS011;3135;42.602;23.468;2023-06-24T02:40:56;10.77;;;6.80;;
6203;SDS011;3135;42.602;23.468;2023-06-24T02:43:22;9.50;;;6.40;;
6203;SDS011;3135;42.602;23.468;2023-06-24T02:45:48;9.40;;;6.20;;
6203;SDS011;3135;42.602;23.468;2023-06-24T02:48:15;8.85;;;6.55;;
6203;SDS011;3135;42.602;23.468;2023-06-24T02:50:42;8.57;;;6.32;;
6203;SDS011;3135;42.602;23.468;2023-06-24T02:53:10;11.10;;;7.25;;
6203;SDS011;3135;42.602;23.468;2023-06-24T02:55:37;10.63;;;7.20;;
6203;SDS011;3135;42.602;23.468;2023-06-24T02:58:05;9.55;;;6.97;;
6203;SDS011;3135;42.602;23.468;2023-06-24T03:00:33;9.20;;;7.00;;
6203;SDS011;3135;42.602;23.468;2023-06-24T03:03:00;9.73;;;7.07;;
6203;SDS011;3135;42.602;23.468;2023-06-24T03:05:26;9.93;;;6.90;;
6203;SDS011;3135;42.602;23.468;2023-06-24T03:07:53;9.30;;;6.60;;
6203;SDS011;3135;42.602;23.468;2023-06-24T03:10:18;9.13;;;6.37;;
6203;SDS011;3135;42.602;23.468;2023-06-24T03:12:44;9.13;;;6.95;;
6203;SDS011;3135;42.602;23.468;2023-06-24T03:15:09;11.27;;;7.40;;
6203;SDS011;3135;42.602;23.468;2023-06-24T03:17:35;11.07;;;7.10;;
6203;SDS011;3135;42.602;23.468;2023-06-24T03:20:01;11.15;;;7.45;;
6203;SDS011;3135;42.602;23.468;2023-06-24T03:22:29;9.52;;;7.07;;
6203;SDS011;3135;42.602;23.468;2023-06-24T03:24:54;9.83;;;7.17;;
6203;SDS011;3135;42.602;23.468;2023-06-24T03:27:21;10.90;;;7.73;;
6203;SDS011;3135;42.602;23.468;2023-06-24T03:29:46;10.37;;;7.27;;
6203;SDS011;3135;42.602;23.468;2023-06-24T03:32:11;10.18;;;7.10;;
6203;SDS011;3135;42.602;23.468;2023-06-24T03:34:37;9.03;;;7.00;;
6203;SDS011;3135;42.602;23.468;2023-06-24T03:37:02;9.43;;;6.60;;
6203;SDS011;3135;42.602;23.468;2023-06-24T03:39:29;9.50;;;7.25;;
6203;SDS011;3135;42.602;23.468;2023-06-24T03:41:55;9.57;;;7.40;;
6203;SDS011;3135;42.602;23.468;2023-06-24T03:44:20;9.43;;;7.30;;
6203;SDS011;3135;42.602;23.468;2023-06-24T03:46:45;9.50;;;7.20;;
6203;SDS011;3135;42.602;23.468;2023-06-24T03:49:11;13.57;;;7.13;;
6203;SDS011;3135;42.602;23.468;2023-06-24T03:51:36;11.37;;;7.30;;
6203;SDS011;3135;42.602;23.468;2023-06-24T03:54:02;9.57;;;7.75;;
6203;SDS011;3135;42.602;23.468;2023-06-24T03:56:27;10.27;;;7.43;;
6203;SDS011;3135;42.602;23.468;2023-06-24T03:58:53;11.93;;;7.57;;
6203;SDS011;3135;42.602;23.468;2023-06-24T04:01:18;10.07;;;7.32;;
6203;SDS011;3135;42.602;23.468;2023-06-24T04:03:44;11.13;;;7.28;;
6203;SDS011;3135;42.602;23.468;2023-06-24T04:06:10;10.65;;;7.53;;
6203;SDS011;3135;42.602;23.468;2023-06-24T04:08:35;11.00;;;7.20;;
6203;SDS011;3135;42.602;23.468;2023-06-24T04:11:04;10.27;;;8.00;;
6203;SDS011;3135;42.602;23.468;2023-06-24T04:13:31;11.30;;;7.90;;
6203;SDS011;3135;42.602;23.468;2023-06-24T04:15:57;9.37;;;7.00;;
6203;SDS011;3135;42.602;23.468;2023-06-24T04:18:22;9.60;;;7.53;;
6203;SDS011;3135;42.602;23.468;2023-06-24T04:20:47;9.63;;;7.30;;
6203;SDS011;3135;42.602;23.468;2023-06-24T04:23:13;9.23;;;7.10;;
6203;SDS011;3135;42.602;23.468;2023-06-24T04:25:39;11.57;;;7.57;;
6203;SDS011;3135;42.602;23.468;2023-06-24T04:28:05;10.40;;;7.38;;
6203;SDS011;3135;42.602;23.468;2023-06-24T04:30:31;10.65;;;7.53;;
6203;SDS011;3135;42.602;23.468;2023-06-24T04:32:57;11.48;;;8.18;;
6203;SDS011;3135;42.602;23.468;2023-06-24T04:35:23;11.70;;;8.02;;
6203;SDS011;3135;42.602;23.468;2023-06-24T04:37:49;12.52;;;8.48;;
6203;SDS011;3135;42.602;23.468;2023-06-24T04:40:16;13.57;;;8.33;;
6203;SDS011;3135;42.602;23.468;2023-06-24T04:42:45;11.90;;;7.95;;
6203;SDS011;3135;42.602;23.468;2023-06-24T04:45:10;11.73;;;8.18;;
6203;SDS011;3135;42.602;23.468;2023-06-24T04:47:36;12.70;;;8.65;;
6203;SDS011;3135;42.602;23.468;2023-06-24T04:50:01;11.77;;;8.33;;
6203;SDS011;3135;42.602;23.468;2023-06-24T04:52:27;11.70;;;8.17;;
6203;SDS011;3135;42.602;23.468;2023-06-24T04:54:53;14.63;;;8.77;;
6203;SDS011;3135;42.602;23.468;2023-06-24T04:57:26;15.00;;;8.30;;
6203;SDS011;3135;42.602;23.468;2023-06-24T04:59:53;13.90;;;8.07;;
6203;SDS011;3135;42.602;23.468;2023-06-24T05:02:18;12.07;;;8.53;;
6203;SDS011;3135;42.602;23.468;2023-06-24T05:04:44;12.50;;;8.15;;
6203;SDS011;3135;42.602;23.468;2023-06-24T05:07:09;12.57;;;8.27;;
6203;SDS011;3135;42.602;23.468;2023-06-24T05:09:35;11.80;;;8.43;;
6203;SDS011;3135;42.602;23.468;2023-06-24T05:12:03;14.52;;;8.80;;
6203;SDS011;3135;42.602;23.468;2023-06-24T05:14:31;13.38;;;9.00;;
6203;SDS011;3135;42.602;23.468;2023-06-24T05:16:59;13.20;;;9.27;;
6203;SDS011;3135;42.602;23.468;2023-06-24T05:19:24;14.87;;;9.53;;
6203;SDS011;3135;42.602;23.468;2023-06-24T05:21:49;14.67;;;9.47;;
6203;SDS011;3135;42.602;23.468;2023-06-24T05:24:15;13.30;;;9.70;;
6203;SDS011;3135;42.602;23.468;2023-06-24T05:26:40;14.83;;;9.43;;
6203;SDS011;3135;42.602;23.468;2023-06-24T05:29:05;13.70;;;9.27;;
6203;SDS011;3135;42.602;23.468;2023-06-24T05:31:31;15.27;;;9.20;;
6203;SDS011;3135;42.602;23.468;2023-06-24T05:33:56;15.87;;;9.60;;
6203;SDS011;3135;42.602;23.468;2023-06-24T05:36:22;13.10;;;9.37;;
6203;SDS011;3135;42.602;23.468;2023-06-24T05:38:47;15.50;;;10.00;;
6203;SDS011;3135;42.602;23.468;2023-06-24T05:41:13;14.43;;;9.00;;
6203;SDS011;3135;42.602;23.468;2023-06-24T05:43:39;14.32;;;8.93;;
6203;SDS011;3135;42.602;23.468;2023-06-24T05:46:04;13.30;;;9.07;;
6203;SDS011;3135;42.602;23.468;2023-06-24T05:48:30;13.23;;;8.82;;
6203;SDS011;3135;42.602;23.468;2023-06-24T05:50:55;13.90;;;8.83;;
6203;SDS011;3135;42.602;23.468;2023-06-24T05:53:21;12.77;;;9.00;;
6203;SDS011;3135;42.602;23.468;2023-06-24T05:55:46;14.57;;;9.37;;
6203;SDS011;3135;42.602;23.468;2023-06-24T05:58:12;12.63;;;8.50;;
6203;SDS011;3135;42.602;23.468;2023-06-24T06:00:37;13.40;;;9.10;;
6203;SDS011;3135;42.602;23.468;2023-06-24T06:03:02;10.93;;;8.67;;
6203;SDS011;3135;42.602;23.468;2023-06-24T06:05:28;19.83;;;9.07;;
6203;SDS011;3135;42.602;23.468;2023-06-24T06:07:53;13.87;;;8.73;;
6203;SDS011;3135;42.602;23.468;2023-06-24T06:10:19;11.53;;;8.53;;
6203;SDS011;3135;42.602;23.468;2023-06-24T06:12:44;14.57;;;9.17;;
6203;SDS011;3135;42.602;23.468;2023-06-24T06:15:10;13.65;;;9.15;;
6203;SDS011;3135;42.602;23.468;2023-06-24T06:17:36;11.90;;;8.87;;
6203;SDS011;3135;42.602;23.468;2023-06-24T06:20:02;12.20;;;9.13;;
6203;SDS011;3135;42.602;23.468;2023-06-24T06:22:27;13.02;;;9.57;;
6203;SDS011;3135;42.602;23.468;2023-06-24T06:24:53;15.23;;;10.10;;
6203;SDS011;3135;42.602;23.468;2023-06-24T06:27:18;12.57;;;8.93;;
6203;SDS011;3135;42.602;23.468;2023-06-24T06:29:44;17.57;;;9.73;;
6203;SDS011;3135;42.602;23.468;2023-06-24T06:32:09;13.88;;;9.55;;
6203;SDS011;3135;42.602;23.468;2023-06-24T06:34:34;11.37;;;8.93;;
6203;SDS011;3135;42.602;23.468;2023-06-24T06:37:00;15.52;;;9.10;;
6203;SDS011;3135;42.602;23.468;2023-06-24T06:39:25;13.03;;;8.70;;
6203;SDS011;3135;42.602;23.468;2023-06-24T06:41:51;13.82;;;9.00;;
6203;SDS011;3135;42.602;23.468;2023-06-24T06:44:16;13.23;;;9.60;;
6203;SDS011;3135;42.602;23.468;2023-06-24T06:46:42;11.20;;;8.90;;
6203;SDS011;3135;42.602;23.468;2023-06-24T06:49:09;12.00;;;8.88;;
6203;SDS011;3135;42.602;23.468;2023-06-24T06:51:34;10.65;;;8.80;;
6203;SDS011;3135;42.602;23.468;2023-06-24T06:54:01;12.05;;;8.73;;
6203;SDS011;3135;42.602;23.468;2023-06-24T06:56:27;10.95;;;8.10;;
6203;SDS011;3135;42.602;23.468;2023-06-24T06:58:52;11.73;;;8.63;;
6203;SDS011;3135;42.602;23.468;2023-06-24T07:01:18;14.50;;;8.50;;
6203;SDS011;3135;42.602;23.468;2023-06-24T07:03:43;11.32;;;8.18;;
6203;SDS011;3135;42.602;23.468;2023-06-24T07:06:09;11.80;;;8.50;;
6203;SDS011;3135;42.602;23.468;2023-06-24T07:08:35;10.40;;;8.10;;
6203;SDS011;3135;42.602;23.468;2023-06-24T07:11:01;10.55;;;7.90;;
6203;SDS011;3135;42.602;23.468;2023-06-24T07:13:27;11.57;;;8.02;;
6203;SDS011;3135;42.602;23.468;2023-06-24T07:15:52;12.80;;;8.10;;
6203;SDS011;3135;42.602;23.468;2023-06-24T07:18:18;10.67;;;7.93;;
6203;SDS011;3135;42.602;23.468;2023-06-24T07:20:43;10.63;;;8.18;;
6203;SDS011;3135;42.602;23.468;2023-06-24T07:23:08;12.80;;;8.40;;
6203;SDS011;3135;42.602;23.468;2023-06-24T07:25:35;17.13;;;10.32;;
6203;SDS011;3135;42.602;23.468;2023-06-24T07:28:00;11.93;;;8.07;;
6203;SDS011;3135;42.602;23.468;2023-06-24T07:30:26;9.27;;;7.90;;
6203;SDS011;3135;42.602;23.468;2023-06-24T07:32:51;12.40;;;8.10;;
6203;SDS011;3135;42.602;23.468;2023-06-24T07:35:16;12.07;;;8.30;;
6203;SDS011;3135;42.602;23.468;2023-06-24T07:37:44;12.23;;;8.32;;
6203;SDS011;3135;42.602;23.468;2023-06-24T07:40:09;12.73;;;8.90;;
6203;SDS011;3135;42.602;23.468;2023-06-24T07:42:35;10.35;;;8.32;;
6203;SDS011;3135;42.602;23.468;2023-06-24T07:45:00;16.37;;;9.20;;
6203;SDS011;3135;42.602;23.468;2023-06-24T07:47:26;10.80;;;8.47;;
6203;SDS011;3135;42.602;23.468;2023-06-24T07:49:51;9.40;;;7.70;;
6203;SDS011;3135;42.602;23.468;2023-06-24T07:52:17;10.53;;;8.27;;
6203;SDS011;3135;42.602;23.468;2023-06-24T07:54:42;12.63;;;8.67;;
6203;SDS011;3135;42.602;23.468;2023-06-24T07:57:08;13.25;;;8.48;;
6203;SDS011;3135;42.602;23.468;2023-06-24T07:59:33;10.50;;;7.97;;
6203;SDS011;3135;42.602;23.468;2023-06-24T08:01:59;10.07;;;8.20;;
6203;SDS011;3135;42.602;23.468;2023-06-24T08:04:24;10.10;;;8.30;;
6203;SDS011;3135;42.602;23.468;2023-06-24T08:06:50;11.33;;;8.37;;
6203;SDS011;3135;42.602;23.468;2023-06-24T08:09:16;10.95;;;8.35;;
6203;SDS011;3135;42.602;23.468;2023-06-24T08:11:41;9.88;;;8.07;;
6203;SDS011;3135;42.602;23.468;2023-06-24T08:14:07;10.95;;;7.95;;
6203;SDS011;3135;42.602;23.468;2023-06-24T08:16:33;12.03;;;8.53;;
6203;SDS011;3135;42.602;23.468;2023-06-24T08:18:58;9.77;;;7.90;;
6203;SDS011;3135;42.602;23.468;2023-06-24T08:21:23;12.25;;;8.02;;
6203;SDS011;3135;42.602;23.468;2023-06-24T08:23:49;10.30;;;7.97;;
6203;SDS011;3135;42.602;23.468;2023-06-24T08:26:15;9.90;;;8.20;;
6203;SDS011;3135;42.602;23.468;2023-06-24T08:28:41;9.70;;;7.95;;
6203;SDS011;3135;42.602;23.468;2023-06-24T08:31:06;10.60;;;7.90;;
6203;SDS011;3135;42.602;23.468;2023-06-24T08:33:32;10.73;;;8.40;;
6203;SDS011;3135;42.602;23.468;2023-06-24T08:35:57;9.13;;;8.20;;
6203;SDS011;3135;42.602;23.468;2023-06-24T08:38:22;13.47;;;8.03;;
6203;SDS011;3135;42.602;23.468;2023-06-24T08:40:49;9.65;;;7.75;;
6203;SDS011;3135;42.602;23.468;2023-06-24T08:43:15;12.15;;;8.02;;
6203;SDS011;3135;42.602;23.468;2023-06-24T08:45:40;10.65;;;8.13;;
6203;SDS011;3135;42.602;23.468;2023-06-24T08:48:06;11.03;;;7.93;;
6203;SDS011;3135;42.602;23.468;2023-06-24T08:50:35;8.93;;;7.57;;
6203;SDS011;3135;42.602;23.468;2023-06-24T08:53:03;10.05;;;8.18;;
6203;SDS011;3135;42.602;23.468;2023-06-24T08:55:34;10.18;;;7.82;;
6203;SDS011;3135;42.602;23.468;2023-06-24T08:58:04;12.02;;;8.40;;
6203;SDS011;3135;42.602;23.468;2023-06-24T09:00:30;11.60;;;8.18;;
6203;SDS011;3135;42.602;23.468;2023-06-24T09:02:55;9.77;;;8.13;;
6203;SDS011;3135;42.602;23.468;2023-06-24T09:05:21;10.50;;;7.63;;
6203;SDS011;3135;42.602;23.468;2023-06-24T09:07:47;14.23;;;8.50;;
6203;SDS011;3135;42.602;23.468;2023-06-24T09:10:28;9.13;;;7.93;;
6203;SDS011;3135;42.602;23.468;2023-06-24T09:12:56;9.85;;;7.88;;
6203;SDS011;3135;42.602;23.468;2023-06-24T09:15:22;10.40;;;8.10;;
6203;SDS011;3135;42.602;23.468;2023-06-24T09:17:47;9.83;;;7.97;;
6203;SDS011;3135;42.602;23.468;2023-06-24T09:20:12;9.17;;;7.80;;
6203;SDS011;3135;42.602;23.468;2023-06-24T09:22:40;11.33;;;8.47;;
6203;SDS011;3135;42.602;23.468;2023-06-24T09:25:06;10.10;;;8.30;;
6203;SDS011;3135;42.602;23.468;2023-06-24T09:27:32;11.02;;;8.18;;
6203;SDS011;3135;42.602;23.468;2023-06-24T09:30:00;9.77;;;8.05;;
6203;SDS011;3135;42.602;23.468;2023-06-24T09:32:42;8.43;;;7.53;;
6203;SDS011;3135;42.602;23.468;2023-06-24T09:35:08;10.77;;;7.90;;
6203;SDS011;3135;42.602;23.468;2023-06-24T09:37:34;10.45;;;8.30;;
6203;SDS011;3135;42.602;23.468;2023-06-24T09:40:00;8.70;;;7.63;;
6203;SDS011;3135;42.602;23.468;2023-06-24T09:42:28;9.30;;;7.93;;
6203;SDS011;3135;42.602;23.468;2023-06-24T09:44:54;9.60;;;7.93;;
6203;SDS011;3135;42.602;23.468;2023-06-24T09:47:20;11.38;;;8.38;;
6203;SDS011;3135;42.602;23.468;2023-06-24T09:49:49;10.00;;;8.00;;
6203;SDS011;3135;42.602;23.468;2023-06-24T09:52:15;9.20;;;7.55;;
6203;SDS011;3135;42.602;23.468;2023-06-24T09:54:42;10.45;;;7.35;;
6203;SDS011;3135;42.602;23.468;2023-06-24T09:57:11;11.85;;;7.55;;
6203;SDS011;3135;42.602;23.468;2023-06-24T09:59:38;8.65;;;7.40;;
6203;SDS011;3135;42.602;23.468;2023-06-24T10:02:05;9.57;;;7.50;;
6203;SDS011;3135;42.602;23.468;2023-06-24T10:04:39;8.52;;;7.63;;
6203;SDS011;3135;42.602;23.468;2023-06-24T10:07:06;9.85;;;7.68;;
6203;SDS011;3135;42.602;23.468;2023-06-24T10:09:32;10.48;;;7.22;;
6203;SDS011;3135;42.602;23.468;2023-06-24T10:11:57;9.57;;;7.93;;
6203;SDS011;3135;42.602;23.468;2023-06-24T10:14:23;10.90;;;7.50;;
6203;SDS011;3135;42.602;23.468;2023-06-24T10:16:48;9.95;;;7.00;;
6203;SDS011;3135;42.602;23.468;2023-06-24T10:19:20;9.33;;;7.47;;
6203;SDS011;3135;42.602;23.468;2023-06-24T10:21:52;10.32;;;7.07;;
6203;SDS011;3135;42.602;23.468;2023-06-24T10:24:32;8.30;;;7.15;;
6203;SDS011;3135;42.602;23.468;2023-06-24T10:27:03;7.80;;;7.00;;
6203;SDS011;3135;42.602;23.468;2023-06-24T10:29:30;9.63;;;7.30;;
6203;SDS011;3135;42.602;23.468;2023-06-24T10:32:01;9.87;;;6.97;;
6203;SDS011;3135;42.602;23.468;2023-06-24T10:36:59;9.70;;;7.15;;
6203;SDS011;3135;42.602;23.468;2023-06-24T10:39:36;9.27;;;6.90;;
6203;SDS011;3135;42.602;23.468;2023-06-24T10:44:48;7.10;;;6.40;;
6203;SDS011;3135;42.602;23.468;2023-06-24T10:47:15;6.50;;;5.90;;
6203;SDS011;3135;42.602;23.468;2023-06-24T10:49:41;6.65;;;5.95;;
6203;SDS011;3135;42.602;23.468;2023-06-24T10:52:10;7.97;;;6.10;;
6203;SDS011;3135;42.602;23.468;2023-06-24T10:54:40;8.10;;;6.20;;
6203;SDS011;3135;42.602;23.468;2023-06-24T10:57:06;10.73;;;6.45;;
6203;SDS011;3135;42.602;23.468;2023-06-24T10:59:39;8.10;;;6.10;;
6203;SDS011;3135;42.602;23.468;2023-06-24T11:02:15;6.63;;;5.97;;
6203;SDS011;3135;42.602;23.468;2023-06-24T11:04:42;8.40;;;5.90;;
6203;SDS011;3135;42.602;23.468;2023-06-24T11:07:08;6.55;;;5.43;;
6203;SDS011;3135;42.602;23.468;2023-06-24T11:09:34;7.10;;;6.40;;
6203;SDS011;3135;42.602;23.468;2023-06-24T11:11:59;8.03;;;6.50;;
6203;SDS011;3135;42.602;23.468;2023-06-24T11:14:27;9.13;;;6.95;;
6203;SDS011;3135;42.602;23.468;2023-06-24T11:16:53;8.63;;;6.87;;
6203;SDS011;3135;42.602;23.468;2023-06-24T11:19:18;8.65;;;6.80;;
6203;SDS011;3135;42.602;23.468;2023-06-24T11:21:44;7.57;;;6.33;;
6203;SDS011;3135;42.602;23.468;2023-06-24T11:24:09;10.13;;;6.77;;
6203;SDS011;3135;42.602;23.468;2023-06-24T11:26:36;8.52;;;6.40;;
6203;SDS011;3135;42.602;23.468;2023-06-24T11:29:08;7.17;;;5.87;;
6203;SDS011;3135;42.602;23.468;2023-06-24T11:31:35;11.10;;;7.40;;
6203;SDS011;3135;42.602;23.468;2023-06-24T11:34:00;8.93;;;7.20;;
6203;SDS011;3135;42.602;23.468;2023-06-24T11:36:26;8.70;;;6.60;;
6203;SDS011;3135;42.602;23.468;2023-06-24T11:38:51;6.87;;;6.17;;
6203;SDS011;3135;42.602;23.468;2023-06-24T11:41:20;7.32;;;6.40;;
6203;SDS011;3135;42.602;23.468;2023-06-24T11:43:46;6.97;;;6.18;;
6203;SDS011;3135;42.602;23.468;2023-06-24T11:46:27;8.47;;;6.07;;
6203;SDS011;3135;42.602;23.468;2023-06-24T11:49:08;8.02;;;6.45;;
6203;SDS011;3135;42.602;23.468;2023-06-24T11:51:34;7.10;;;6.40;;
6203;SDS011;3135;42.602;23.468;2023-06-24T11:54:04;7.75;;;6.35;;
6203;SDS011;3135;42.602;23.468;2023-06-24T11:56:37;6.97;;;6.28;;
6203;SDS011;3135;42.602;23.468;2023-06-24T11:59:04;8.43;;;6.38;;
6203;SDS011;3135;42.602;23.468;2023-06-24T12:01:43;6.70;;;6.00;;
6203;SDS011;3135;42.602;23.468;2023-06-24T12:04:10;7.00;;;6.00;;
6203;SDS011;3135;42.602;23.468;2023-06-24T12:06:36;8.10;;;6.75;;
6203;SDS011;3135;42.602;23.468;2023-06-24T12:09:01;6.87;;;6.17;;
6203;SDS011;3135;42.602;23.468;2023-06-24T12:11:27;6.83;;;6.13;;
6203;SDS011;3135;42.602;23.468;2023-06-24T12:13:52;6.63;;;6.03;;
6203;SDS011;3135;42.602;23.468;2023-06-24T12:16:18;6.87;;;6.20;;
6203;SDS011;3135;42.602;23.468;2023-06-24T12:18:43;6.17;;;5.40;;
6203;SDS011;3135;42.602;23.468;2023-06-24T12:21:09;7.65;;;6.10;;
6203;SDS011;3135;42.602;23.468;2023-06-24T12:23:35;6.43;;;5.80;;
6203;SDS011;3135;42.602;23.468;2023-06-24T12:26:00;10.67;;;5.87;;
6203;SDS011;3135;42.602;23.468;2023-06-24T12:28:26;7.87;;;5.83;;
6203;SDS011;3135;42.602;23.468;2023-06-24T12:30:51;6.00;;;5.40;;
6203;SDS011;3135;42.602;23.468;2023-06-24T12:33:16;6.77;;;5.63;;
6203;SDS011;3135;42.602;23.468;2023-06-24T12:35:44;6.22;;;5.47;;
6203;SDS011;3135;42.602;23.468;2023-06-24T12:38:10;7.03;;;5.47;;
6203;SDS011;3135;42.602;23.468;2023-06-24T12:40:36;6.30;;;5.70;;
6203;SDS011;3135;42.602;23.468;2023-06-24T12:43:01;7.30;;;5.73;;
6203;SDS011;3135;42.602;23.468;2023-06-24T12:45:27;6.78;;;5.88;;
6203;SDS011;3135;42.602;23.468;2023-06-24T12:47:53;7.05;;;5.88;;
6203;SDS011;3135;42.602;23.468;2023-06-24T12:50:18;6.40;;;5.60;;
6203;SDS011;3135;42.602;23.468;2023-06-24T12:52:43;9.60;;;6.07;;
6203;SDS011;3135;42.602;23.468;2023-06-24T12:55:09;6.30;;;5.70;;
6203;SDS011;3135;42.602;23.468;2023-06-24T12:57:35;8.20;;;6.10;;
6203;SDS011;3135;42.602;23.468;2023-06-24T13:00:00;13.43;;;6.80;;
6203;SDS011;3135;42.602;23.468;2023-06-24T13:02:26;7.35;;;6.13;;
6203;SDS011;3135;42.602;23.468;2023-06-24T13:04:52;6.97;;;6.23;;
6203;SDS011;3135;42.602;23.468;2023-06-24T13:07:17;6.93;;;6.20;;
6203;SDS011;3135;42.602;23.468;2023-06-24T13:09:42;6.97;;;6.20;;
6203;SDS011;3135;42.602;23.468;2023-06-24T13:12:08;8.40;;;6.23;;
6203;SDS011;3135;42.602;23.468;2023-06-24T13:14:34;6.75;;;6.05;;
6203;SDS011;3135;42.602;23.468;2023-06-24T13:16:59;7.20;;;5.90;;
6203;SDS011;3135;42.602;23.468;2023-06-24T13:19:24;11.98;;;6.30;;
6203;SDS011;3135;42.602;23.468;2023-06-24T13:21:50;8.23;;;6.37;;
6203;SDS011;3135;42.602;23.468;2023-06-24T13:24:15;8.75;;;6.47;;
6203;SDS011;3135;42.602;23.468;2023-06-24T13:26:41;7.83;;;5.90;;
6203;SDS011;3135;42.602;23.468;2023-06-24T13:29:06;9.27;;;5.87;;
6203;SDS011;3135;42.602;23.468;2023-06-24T13:31:32;8.33;;;5.97;;
6203;SDS011;3135;42.602;23.468;2023-06-24T13:33:58;8.13;;;6.33;;
6203;SDS011;3135;42.602;23.468;2023-06-24T13:36:31;9.20;;;6.50;;
6203;SDS011;3135;42.602;23.468;2023-06-24T13:39:00;10.30;;;6.43;;
6203;SDS011;3135;42.602;23.468;2023-06-24T13:41:25;8.37;;;5.97;;
6203;SDS011;3135;42.602;23.468;2023-06-24T13:43:54;7.85;;;6.32;;
6203;SDS011;3135;42.602;23.468;2023-06-24T13:46:20;8.60;;;6.50;;
6203;SDS011;3135;42.602;23.468;2023-06-24T13:48:45;7.10;;;6.27;;
6203;SDS011;3135;42.602;23.468;2023-06-24T13:51:11;7.40;;;6.00;;
6203;SDS011;3135;42.602;23.468;2023-06-24T13:53:36;7.85;;;6.45;;
6203;SDS011;3135;42.602;23.468;2023-06-24T13:56:03;12.43;;;6.30;;
6203;SDS011;3135;42.602;23.468;2023-06-24T13:58:29;9.73;;;5.18;;
6203;SDS011;3135;42.602;23.468;2023-06-24T14:00:54;6.25;;;5.07;;
6203;SDS011;3135;42.602;23.468;2023-06-24T14:03:19;9.20;;;5.70;;
6203;SDS011;3135;42.602;23.468;2023-06-24T14:05:45;12.00;;;5.30;;
6203;SDS011;3135;42.602;23.468;2023-06-24T14:08:10;14.87;;;5.17;;
6203;SDS011;3135;42.602;23.468;2023-06-24T14:10:36;8.73;;;5.10;;
6203;SDS011;3135;42.602;23.468;2023-06-24T14:13:01;7.03;;;4.77;;
6203;SDS011;3135;42.602;23.468;2023-06-24T14:15:26;9.17;;;4.70;;
6203;SDS011;3135;42.602;23.468;2023-06-24T14:17:52;10.43;;;4.60;;
6203;SDS011;3135;42.602;23.468;2023-06-24T14:20:17;8.50;;;4.67;;
6203;SDS011;3135;42.602;23.468;2023-06-24T14:22:43;12.43;;;5.10;;
6203;SDS011;3135;42.602;23.468;2023-06-24T14:25:09;7.30;;;4.90;;
6203;SDS011;3135;42.602;23.468;2023-06-24T14:27:34;11.52;;;4.90;;
6203;SDS011;3135;42.602;23.468;2023-06-24T14:30:00;7.73;;;4.23;;
6203;SDS011;3135;42.602;23.468;2023-06-24T14:32:25;8.40;;;4.50;;
6203;SDS011;3135;42.602;23.468;2023-06-24T14:34:51;7.30;;;4.63;;
6203;SDS011;3135;42.602;23.468;2023-06-24T14:37:16;8.27;;;4.80;;
6203;SDS011;3135;42.602;23.468;2023-06-24T14:39:42;9.23;;;4.77;;
6203;SDS011;3135;42.602;23.468;2023-06-24T14:42:07;12.70;;;4.90;;
6203;SDS011;3135;42.602;23.468;2023-06-24T14:44:33;8.27;;;5.23;;
6203;SDS011;3135;42.602;23.468;2023-06-24T14:46:58;7.93;;;5.13;;
6203;SDS011;3135;42.602;23.468;2023-06-24T14:49:23;10.00;;;5.07;;
6203;SDS011;3135;42.602;23.468;2023-06-24T14:51:49;9.00;;;5.03;;
6203;SDS011;3135;42.602;23.468;2023-06-24T14:54:14;7.43;;;5.03;;
6203;SDS011;3135;42.602;23.468;2023-06-24T14:56:40;11.05;;;4.95;;
6203;SDS011;3135;42.602;23.468;2023-06-24T14:59:05;7.67;;;4.50;;
6203;SDS011;3135;42.602;23.468;2023-06-24T15:01:31;6.05;;;4.60;;
6203;SDS011;3135;42.602;23.468;2023-06-24T15:03:56;6.70;;;4.93;;
6203;SDS011;3135;42.602;23.468;2023-06-24T15:06:22;11.10;;;4.97;;